Weather History for KFET - January, 2014

Change the Weather History Date:

Friday, January 17, 2014

  Actual Average Record
Temperature  
Mean Temperature 22 °F -  
Max Temperature 34 °F 31 °F 60 °F (1986)
Min Temperature 9 °F 12 °F -12 °F (1978)
Degree Days  
Heating Degree Days 44    
Moisture  
Dew Point 6 °F    
Average Humidity 49    
Maximum Humidity 68    
Minimum Humidity 25    
Precipitation  
Precipitation 0.00 in - - ()
Sea Level Pressure  
Sea Level Pressure 30.06 in    
Wind  
Wind Speed 13 mph (West)    
Max Wind Speed 21 mph    
Max Gust Speed 29 mph    
Visibility 10 miles    
Events      
Averages and records for this station are not official NWS values.
T = Trace of Precipitation, MM = Missing Value Source: NWS Daily Summary

Daily Weather History Graph

Daily Weather History Graph

Search for Another Location

Airport or City:

Trip Planner

Search our weather history database for the weather conditions in past years. The results will help you decide how hot, cold, wet, or windy it might be!

Date:

Astronomy

Jan. 17, 2014 Rise Set
Actual Time 7:49 AM CST 5:23 PM CST
Civil Twilight 7:18 AM CST 5:54 PM CST
Nautical Twilight 6:44 AM CST 6:28 PM CST
Astronomical Twilight 6:11 AM CST 7:01 PM CST
Moon 7:13 PM CST (1/17) 8:15 AM CST (1/17)
Length of Visible Light 10h 35m
Length of Day
9h 34m
Full, 98% of the Moon is Illuminated
Jan 17
Full
Jan 23
Last Quarter
Jan 30
New
Feb 6
First Quarter
Feb 14
Full

Hourly Weather History & Observations

Time (CST) Temp. Windchill Dew Point Humidity Pressure Visibility Wind Dir Wind Speed Gust Speed Precip Events Conditions
12:15 AM 15.6 °F 1.2 °F 2.7 °F 57% 30.09 in 10.0 mi NW 13.8 mph 21.9 mph N/A   Clear
12:35 AM 15.4 °F -1.6 °F 3.2 °F 59% 30.09 in 10.0 mi NW 19.6 mph - N/A   Clear
12:55 AM 15.8 °F 0.3 °F 1.8 °F 54% 30.09 in 10.0 mi NW 16.1 mph 24.2 mph N/A   Clear
1:15 AM 15.3 °F -1.3 °F 1.8 °F 55% 30.10 in 10.0 mi NW 18.4 mph 25.3 mph N/A   Clear
1:35 AM 14.9 °F -0.3 °F 1.8 °F 56% 30.10 in 10.0 mi NW 15.0 mph 24.2 mph N/A   Clear
1:55 AM 14.4 °F -1.0 °F 2.3 °F 59% 30.10 in 10.0 mi WNW 15.0 mph 23.0 mph N/A   Clear
2:15 AM 14.0 °F -3.0 °F 2.8 °F 61% 30.11 in 10.0 mi NW 18.4 mph 24.2 mph N/A   Clear
2:35 AM 14.0 °F -2.0 °F 2.3 °F 60% 30.11 in 10.0 mi NW 16.1 mph - N/A   Clear
2:55 AM 13.3 °F -1.1 °F 2.3 °F 62% 30.11 in 10.0 mi WNW 12.7 mph - N/A   Clear
3:15 AM 13.1 °F -3.1 °F 2.1 °F 62% 30.11 in 10.0 mi WNW 16.1 mph 20.7 mph N/A   Clear
3:35 AM 13.1 °F -4.6 °F 2.1 °F 62% 30.11 in 10.0 mi NW 19.6 mph 25.3 mph N/A   Clear
3:55 AM 13.1 °F -5.1 °F 1.9 °F 61% 30.10 in 10.0 mi NW 20.7 mph 28.8 mph N/A   Clear
4:15 AM 13.1 °F -4.2 °F 1.9 °F 61% 30.10 in 10.0 mi NW 18.4 mph 25.3 mph N/A   Clear
4:35 AM 13.1 °F -3.1 °F 1.9 °F 61% 30.11 in 10.0 mi NW 16.1 mph - N/A   Clear
4:55 AM 12.6 °F -2.7 °F 1.2 °F 61% 30.11 in 10.0 mi NW 13.8 mph 19.6 mph N/A   Clear
5:15 AM 12.0 °F -4.0 °F 1.4 °F 62% 30.12 in 10.0 mi NW 15.0 mph - N/A   Clear
5:35 AM 11.5 °F -4.1 °F 0.9 °F 62% 30.12 in 10.0 mi NW 13.8 mph - N/A   Clear
5:55 AM 11.3 °F -3.6 °F 0.5 °F 62% 30.12 in 10.0 mi WNW 12.7 mph - N/A   Clear
6:15 AM 10.4 °F -4.1 °F 0.5 °F 64% 30.12 in 10.0 mi WNW 11.5 mph - N/A   Clear
6:35 AM 10.4 °F -5.4 °F 1.0 °F 66% 30.12 in 10.0 mi WNW 13.8 mph - N/A   Clear
6:55 AM 10.8 °F -5.0 °F 0.5 °F 63% 30.13 in 10.0 mi WNW 13.8 mph - N/A   Clear
7:15 AM 10.9 °F -3.4 °F 1.0 °F 64% 30.14 in 10.0 mi WNW 11.5 mph - N/A   Clear
7:35 AM 10.4 °F -3.3 °F 1.0 °F 66% 30.15 in 10.0 mi WNW 10.4 mph - N/A   Clear
7:55 AM 9.9 °F -1.1 °F 0.5 °F 66% 30.15 in 10.0 mi WNW 6.9 mph - N/A   Clear
8:15 AM 9.1 °F -1.9 °F 0.5 °F 68% 30.15 in 10.0 mi WNW 6.9 mph - N/A   Clear
8:35 AM 12.2 °F -0.2 °F 1.4 °F 62% 30.15 in 10.0 mi NW 9.2 mph - N/A   Clear
8:55 AM 14.0 °F -0.8 °F 2.1 °F 59% 30.16 in 10.0 mi NW 13.8 mph - N/A   Clear
9:15 AM 15.4 °F 0.4 °F 2.1 °F 56% 30.16 in 10.0 mi WNW 15.0 mph - N/A   Clear
9:35 AM 16.7 °F 2.6 °F 1.8 °F 52% 30.16 in 10.0 mi NW 13.8 mph - N/A   Clear
9:55 AM 18.1 °F 2.0 °F -0.2 °F 45% 30.17 in 10.0 mi NW 19.6 mph - N/A   Clear
10:15 AM 19.0 °F 4.0 °F 0.5 °F 44% 30.17 in 10.0 mi NW 17.3 mph - N/A   Clear
10:35 AM 20.3 °F 6.1 °F 1.0 °F 43% 30.18 in 10.0 mi NW 16.1 mph - N/A   Clear
10:55 AM 21.9 °F 9.2 °F 1.6 °F 41% 30.18 in 10.0 mi NW 13.8 mph 18.4 mph N/A   Clear
11:15 AM 22.6 °F 9.2 °F 0.9 °F 39% 30.16 in 10.0 mi NW 16.1 mph 20.7 mph N/A   Clear
11:35 AM 24.4 °F 11.9 °F 1.8 °F 38% 30.16 in 10.0 mi NW 15.0 mph - N/A   Clear
11:55 AM 25.7 °F 16.4 °F 1.2 °F 35% 30.15 in 10.0 mi NW 9.2 mph - N/A   Clear
12:15 PM 27.3 °F 17.1 °F 0.3 °F 31% 30.13 in 10.0 mi NW 11.5 mph 16.1 mph N/A   Clear
12:35 PM 28.9 °F 21.9 °F 0.1 °F 29% 30.12 in 10.0 mi NW 6.9 mph - N/A   Clear
12:55 PM 30.2 °F 22.6 °F -1.3 °F 26% 30.11 in 10.0 mi WNW 8.1 mph - N/A   Clear
1:15 PM 30.7 °F 24.9 °F -2.0 °F 25% 30.10 in 10.0 mi NNW 5.8 mph - N/A   Clear
1:35 PM 32.0 °F 23.6 °F 1.0 °F 27% 30.09 in 10.0 mi NW 10.4 mph - N/A   Clear
1:55 PM 32.0 °F 23.6 °F 1.9 °F 28% 30.08 in 10.0 mi NW 10.4 mph - N/A   Clear
2:15 PM 33.3 °F 26.4 °F 4.1 °F 29% 30.07 in 10.0 mi West 8.1 mph 16.1 mph N/A   Clear
2:35 PM 33.1 °F 25.5 °F 6.1 °F 32% 30.07 in 10.0 mi NW 9.2 mph - N/A   Clear
2:55 PM 34.2 °F 31.2 °F 7.5 °F 33% 30.06 in 10.0 mi WSW 3.5 mph - N/A   Clear
3:15 PM 34.2 °F 29.0 °F 8.4 °F 34% 30.06 in 10.0 mi West 5.8 mph - N/A   Clear
3:35 PM 33.8 °F 27.7 °F 9.0 °F 36% 30.06 in 10.0 mi West 6.9 mph - N/A   Clear
3:55 PM 34.2 °F 29.0 °F 9.5 °F 36% 30.06 in 10.0 mi WSW 5.8 mph - N/A   Clear
4:15 PM 34.2 °F 29.0 °F 10.2 °F 37% 30.06 in 10.0 mi WSW 5.8 mph - N/A   Clear
4:35 PM 33.4 °F 30.4 °F 10.4 °F 38% 30.05 in 10.0 mi WSW 3.5 mph - N/A   Clear
4:55 PM 32.0 °F 28.7 °F 10.9 °F 42% 30.04 in 10.0 mi SW 3.5 mph - N/A   Clear
5:15 PM 31.8 °F - 11.1 °F 42% 30.03 in 10.0 mi Calm Calm - N/A   Clear
5:35 PM 32.0 °F 28.7 °F 11.1 °F 42% 30.03 in 10.0 mi South 3.5 mph - N/A   Clear
5:55 PM 29.8 °F 26.3 °F 11.1 °F 46% 30.01 in 10.0 mi SSE 3.5 mph - N/A   Clear
6:15 PM 28.4 °F 23.3 °F 11.3 °F 49% 30.01 in 10.0 mi SSE 4.6 mph - N/A   Clear
6:35 PM 29.7 °F 24.7 °F 12.2 °F 48% 30.00 in 10.0 mi SSE 4.6 mph - N/A   Clear
6:55 PM 29.7 °F 26.1 °F 12.0 °F 48% 30.00 in 10.0 mi SSE 3.5 mph - N/A   Clear
7:15 PM 29.7 °F 24.7 °F 12.7 °F 49% 29.99 in 10.0 mi SSE 4.6 mph - N/A   Clear
7:35 PM 30.7 °F 26.0 °F 12.6 °F 47% 29.99 in 10.0 mi SSE 4.6 mph - N/A   Clear
7:55 PM 30.2 °F 25.4 °F 12.7 °F 48% 29.98 in 10.0 mi SSE 4.6 mph - N/A   Clear
8:15 PM 30.9 °F 24.3 °F 13.1 °F 48% 29.96 in 10.0 mi SSE 6.9 mph - N/A   Clear
8:35 PM 30.7 °F 24.9 °F 12.7 °F 47% 29.96 in 10.0 mi SSE 5.8 mph - N/A   Clear
8:55 PM 29.8 °F 23.0 °F 12.6 °F 49% 29.94 in 10.0 mi SSE 6.9 mph - N/A   Clear
9:15 PM 32.0 °F 25.6 °F 13.6 °F 47% 29.93 in 10.0 mi SSE 6.9 mph - N/A   Scattered Clouds
9:35 PM 32.0 °F 24.8 °F 14.0 °F 48% 29.92 in 10.0 mi SSE 8.1 mph - N/A   Mostly Cloudy
9:55 PM 32.4 °F 25.3 °F 14.5 °F 48% 29.91 in 10.0 mi SSE 8.1 mph - N/A   Overcast
10:15 PM 32.9 °F 24.1 °F 15.4 °F 49% 29.89 in 10.0 mi South 11.5 mph - N/A   Overcast
10:35 PM 32.9 °F 24.1 °F 15.8 °F 49% 29.87 in 10.0 mi South 11.5 mph 18.4 mph N/A   Overcast
10:55 PM 32.0 °F 22.5 °F 15.8 °F 51% 29.86 in 10.0 mi South 12.7 mph - N/A   Mostly Cloudy
11:15 PM 32.0 °F 22.1 °F 16.7 °F 53% 29.83 in 10.0 mi South 13.8 mph 18.4 mph N/A   Mostly Cloudy
11:35 PM 32.2 °F 22.7 °F 17.2 °F 54% 29.81 in 10.0 mi South 12.7 mph 17.3 mph N/A   Overcast
11:55 PM 32.2 °F 22.3 °F 17.6 °F 55% 29.79 in 10.0 mi South 13.8 mph 20.7 mph N/A   Overcast